createdAt,value
2022-09-21T00:01:41.126Z,97013.00
2022-09-21T00:04:09.563Z,97011.19
2022-09-21T00:06:38.518Z,97012.50
2022-09-21T00:09:08.294Z,97007.63
2022-09-21T00:11:37.294Z,97012.94
2022-09-21T00:14:08.099Z,97012.94
2022-09-21T00:16:38.228Z,97015.56
2022-09-21T00:19:07.829Z,97012.09
2022-09-21T00:21:38.194Z,97013.94
2022-09-21T00:24:07.358Z,97013.94
2022-09-21T00:26:35.928Z,97015.03
2022-09-21T00:29:05.231Z,97013.25
2022-09-21T00:31:34.001Z,97019.50
2022-09-21T00:34:07.651Z,97019.56
2022-09-21T00:36:36.103Z,97020.94
2022-09-21T00:39:04.842Z,97020.09
2022-09-21T00:41:35.340Z,97016.63
2022-09-21T00:44:30.203Z,97015.81
2022-09-21T00:47:03.180Z,97020.56
2022-09-21T00:49:33.997Z,97020.72
2022-09-21T00:52:05.451Z,97016.34
2022-09-21T00:54:39.369Z,97018.91
2022-09-21T00:57:08.669Z,97023.66
2022-09-21T00:59:39.508Z,97020.34
2022-09-21T01:02:08.470Z,97024.94
2022-09-21T01:04:39.587Z,97025.63
2022-09-21T01:07:12.908Z,97020.53
2022-09-21T01:09:43.555Z,97014.69
2022-09-21T01:12:27.615Z,97016.91
2022-09-21T01:15:09.185Z,97011.72
2022-09-21T01:17:46.367Z,97013.41
2022-09-21T01:21:03.345Z,97018.56
2022-09-21T01:23:46.812Z,97018.94
2022-09-21T01:26:26.208Z,97012.28
2022-09-21T01:29:13.631Z,97017.72
2022-09-21T01:31:47.876Z,97014.75
2022-09-21T01:34:32.093Z,97015.16
2022-09-21T01:37:06.618Z,97018.03
2022-09-21T01:39:37.077Z,97014.94
2022-09-21T01:42:08.566Z,97014.66
2022-09-21T01:44:41.543Z,97017.59
2022-09-21T01:47:14.104Z,97015.56
2022-09-21T01:49:47.319Z,97015.63
2022-09-21T01:52:20.577Z,97016.44
2022-09-21T01:54:53.037Z,97008.50
2022-09-21T01:57:28.025Z,97008.38
2022-09-21T02:00:00.000Z,97007.22
2022-09-21T02:02:35.607Z,97007.50
2022-09-21T02:05:05.827Z,97008.78
2022-09-21T02:07:35.584Z,97017.88
2022-09-21T02:10:05.266Z,97014.25
2022-09-21T02:12:33.807Z,97017.03
2022-09-21T02:15:04.706Z,97019.00
2022-09-21T02:17:41.165Z,97014.06
2022-09-21T02:20:18.508Z,97014.13
2022-09-21T02:22:58.693Z,97013.94
2022-09-21T02:25:37.056Z,97010.47
2022-09-21T02:28:09.759Z,97009.56
2022-09-21T02:30:42.386Z,97009.47
2022-09-21T02:33:17.791Z,97017.66
2022-09-21T02:35:51.069Z,97010.19
2022-09-21T02:38:26.850Z,97013.53
2022-09-21T02:41:03.878Z,97010.50
2022-09-21T02:43:38.439Z,97006.88
2022-09-21T02:46:11.717Z,97010.41
2022-09-21T02:48:45.332Z,97012.06
2022-09-21T02:51:18.563Z,97011.91
2022-09-21T02:53:49.367Z,97015.22
2022-09-21T02:56:18.665Z,97013.00
2022-09-21T02:58:51.701Z,97009.09
2022-09-21T03:01:23.709Z,97011.84
2022-09-21T03:03:52.039Z,97015.22
2022-09-21T03:06:20.526Z,97013.84
2022-09-21T03:08:48.992Z,97021.22
2022-09-21T03:11:18.164Z,97022.50
2022-09-21T03:13:47.198Z,97023.91
2022-09-21T03:16:16.496Z,97022.78
2022-09-21T03:18:46.595Z,97031.56
2022-09-21T03:21:15.264Z,97027.81
2022-09-21T03:23:43.604Z,97038.22
2022-09-21T03:26:12.265Z,97041.13
2022-09-21T03:28:40.682Z,97036.66
2022-09-21T03:31:09.126Z,97035.84
2022-09-21T03:33:37.578Z,97040.53
2022-09-21T03:36:07.826Z,97037.19
2022-09-21T03:38:36.423Z,97029.97
2022-09-21T03:41:04.875Z,97043.34
2022-09-21T03:43:33.475Z,97036.66
2022-09-21T03:46:01.825Z,97037.91
2022-09-21T03:48:31.048Z,97040.16
2022-09-21T03:50:59.497Z,97041.53
2022-09-21T03:53:29.261Z,97051.53
2022-09-21T03:55:58.855Z,97051.13
2022-09-21T03:58:27.352Z,97052.34
2022-09-21T04:00:55.744Z,97054.44
2022-09-21T04:03:24.131Z,97057.34
2022-09-21T04:05:52.472Z,97057.63
2022-09-21T04:08:20.831Z,97060.69
2022-09-21T04:10:50.762Z,97053.84
2022-09-21T04:13:19.149Z,97054.38
2022-09-21T04:15:47.539Z,97055.22
2022-09-21T04:18:15.911Z,97056.34
2022-09-21T04:20:44.216Z,97050.22
2022-09-21T04:23:12.879Z,97051.91
2022-09-21T04:25:41.944Z,97052.28
2022-09-21T04:28:11.705Z,97052.28
2022-09-21T04:30:40.338Z,97056.06
2022-09-21T04:33:08.792Z,97064.25
2022-09-21T04:35:37.399Z,97058.03
2022-09-21T04:38:09.107Z,97057.22
2022-09-21T04:40:39.141Z,97061.13
2022-09-21T04:43:22.563Z,97058.63
2022-09-21T04:45:51.826Z,97052.34
2022-09-21T04:48:20.191Z,97057.75
2022-09-21T04:50:50.478Z,97058.63
2022-09-21T04:53:19.058Z,97056.69
2022-09-21T04:55:47.578Z,97058.34
2022-09-21T04:58:16.110Z,97063.47
2022-09-21T05:00:45.811Z,97055.56
2022-09-21T05:03:14.296Z,97056.69
2022-09-21T05:05:48.091Z,97062.34
2022-09-21T05:08:17.281Z,97063.06
2022-09-21T05:10:44.837Z,97065.63
2022-09-21T05:13:19.646Z,97065.38
2022-09-21T05:15:49.572Z,97067.03
2022-09-21T05:18:17.956Z,97073.84
2022-09-21T05:20:46.433Z,97072.84
2022-09-21T05:23:16.787Z,97067.19
2022-09-21T05:25:45.251Z,97067.72
2022-09-21T05:28:14.226Z,97075.28
2022-09-21T05:30:56.248Z,97075.50
2022-09-21T05:33:36.906Z,97074.41
2022-09-21T05:36:18.244Z,97078.69
2022-09-21T05:38:47.150Z,97074.69
2022-09-21T05:41:15.943Z,97084.31
2022-09-21T05:43:45.505Z,97080.69
2022-09-21T05:46:21.113Z,97081.94
2022-09-21T05:49:00.058Z,97089.16
2022-09-21T05:51:36.524Z,97086.78
2022-09-21T05:54:16.498Z,97086.41
2022-09-21T05:56:50.045Z,97089.59
2022-09-21T05:59:36.859Z,97092.06
2022-09-21T06:02:16.103Z,97092.63
2022-09-21T06:04:47.343Z,97097.50
2022-09-21T06:07:17.431Z,97098.47
2022-09-21T06:09:45.792Z,97095.81
2022-09-21T06:12:14.684Z,97100.41
2022-09-21T06:14:44.127Z,97096.25
2022-09-21T06:17:13.351Z,97103.88
2022-09-21T06:19:41.713Z,97103.06
2022-09-21T06:22:11.471Z,97098.59
2022-09-21T06:24:39.835Z,97107.91
2022-09-21T06:27:08.210Z,97104.72
2022-09-21T06:29:36.550Z,97111.09
2022-09-21T06:32:06.219Z,97103.59
2022-09-21T06:34:34.530Z,97111.41
2022-09-21T06:37:03.176Z,97108.75
2022-09-21T06:39:32.874Z,97100.84
2022-09-21T06:42:02.207Z,97106.94
2022-09-21T06:44:31.000Z,97110.28
2022-09-21T06:46:59.306Z,97109.44
2022-09-21T06:49:28.730Z,97113.31
2022-09-21T06:51:57.321Z,97113.88
2022-09-21T06:54:25.692Z,97117.19
2022-09-21T06:56:59.831Z,97114.94
2022-09-21T06:59:28.726Z,97114.41
2022-09-21T07:01:58.523Z,97115.34
2022-09-21T07:04:28.458Z,97117.25
2022-09-21T07:06:57.740Z,97114.34
2022-09-21T07:12:16.190Z,97122.38
2022-09-21T07:14:45.643Z,97121.50
2022-09-21T07:17:16.141Z,97123.72
2022-09-21T07:19:44.487Z,97126.75
2022-09-21T07:22:13.134Z,97133.97
2022-09-21T07:24:41.448Z,97134.22
2022-09-21T07:27:09.976Z,97135.56
2022-09-21T07:29:39.706Z,97130.44
2022-09-21T07:32:08.008Z,97129.16
2022-09-21T07:34:37.908Z,97133.88
2022-09-21T07:37:06.376Z,97123.66
2022-09-21T07:39:35.577Z,97126.75
2022-09-21T07:42:03.893Z,97128.25
2022-09-21T07:44:32.280Z,97125.47
2022-09-21T07:47:03.371Z,97134.09
2022-09-21T07:49:31.783Z,97127.66
2022-09-21T07:52:03.829Z,97127.91
2022-09-21T07:54:34.508Z,97124.81
2022-09-21T07:57:20.400Z,97125.06
2022-09-21T07:59:48.946Z,97130.56
2022-09-21T08:02:18.642Z,97134.44
2022-09-21T08:04:47.145Z,97136.06
2022-09-21T08:07:15.827Z,97137.63
2022-09-21T08:09:44.397Z,97135.03
2022-09-21T08:12:12.924Z,97140.59
2022-09-21T08:14:41.658Z,97138.47
2022-09-21T08:17:09.937Z,97137.19
2022-09-21T08:19:39.648Z,97134.88
2022-09-21T08:22:08.349Z,97133.97
2022-09-21T08:24:37.654Z,97143.94
2022-09-21T08:27:06.337Z,97133.72
2022-09-21T08:29:36.215Z,97139.41
2022-09-21T08:32:05.088Z,97135.81
2022-09-21T08:34:33.411Z,97144.50
2022-09-21T08:37:03.122Z,97124.03
2022-09-21T08:39:31.549Z,97131.03
2022-09-21T08:42:16.031Z,97130.97
2022-09-21T08:44:49.526Z,97129.16
2022-09-21T08:47:21.411Z,97122.09
2022-09-21T08:49:54.486Z,97123.94
2022-09-21T08:52:25.914Z,97126.78
2022-09-21T08:54:57.753Z,97120.00
2022-09-21T08:57:30.650Z,97116.25
2022-09-21T09:00:01.569Z,97122.09
2022-09-21T09:03:03.434Z,97118.13
2022-09-21T09:05:45.862Z,97118.13
2022-09-21T09:08:31.708Z,97120.13
2022-09-21T09:11:15.551Z,97121.16
2022-09-21T09:14:03.418Z,97121.84
2022-09-21T09:16:41.454Z,97120.19
2022-09-21T09:19:19.765Z,97123.53
2022-09-21T09:21:48.118Z,97120.88
2022-09-21T09:24:25.296Z,97117.50
2022-09-21T09:26:57.931Z,97119.47
2022-09-21T09:29:33.302Z,97123.44
2022-09-21T09:32:02.870Z,97126.22
2022-09-21T09:34:35.912Z,97125.66
2022-09-21T09:37:12.206Z,97107.63
2022-09-21T09:39:45.235Z,97109.09
2022-09-21T09:42:29.516Z,97107.22
2022-09-21T09:45:13.789Z,97110.03
2022-09-21T09:47:54.437Z,97112.53
2022-09-21T09:50:28.619Z,97111.69
2022-09-21T09:53:04.977Z,97106.72
2022-09-21T09:55:40.176Z,97109.03
2022-09-21T09:58:18.244Z,97095.91
2022-09-21T10:00:48.064Z,97094.41
2022-09-21T10:03:19.387Z,97091.06
2022-09-21T10:05:48.090Z,97089.63
2022-09-21T10:08:43.106Z,97086.69
2022-09-21T10:11:15.361Z,97087.72
2022-09-21T10:13:45.099Z,97084.81
2022-09-21T10:16:15.895Z,97091.75
2022-09-21T10:18:48.611Z,97080.34
2022-09-21T10:21:22.699Z,97084.91
2022-09-21T10:23:55.095Z,97079.00
2022-09-21T10:26:25.112Z,97065.66
2022-09-21T10:28:58.987Z,97066.63
2022-09-21T10:31:29.995Z,97057.81
2022-09-21T10:34:13.714Z,97066.69
2022-09-21T10:36:43.569Z,97062.56
2022-09-21T10:39:26.844Z,97058.78
2022-09-21T10:42:08.812Z,97049.41
2022-09-21T10:44:42.382Z,97046.38
2022-09-21T10:47:20.185Z,97049.53
2022-09-21T10:49:51.370Z,97054.16
2022-09-21T10:52:22.733Z,97050.75
2022-09-21T10:54:54.906Z,97045.41
2022-09-21T10:57:26.654Z,97043.03
2022-09-21T10:59:55.111Z,97049.25
2022-09-21T11:02:34.894Z,97041.00
2022-09-21T11:05:10.738Z,97038.97
2022-09-21T11:07:47.707Z,97043.38
2022-09-21T11:10:22.249Z,97039.78
2022-09-21T11:13:04.002Z,97035.97
2022-09-21T11:15:43.681Z,97033.84
2022-09-21T11:18:19.984Z,97030.50
2022-09-21T11:20:53.082Z,97024.66
2022-09-21T11:23:40.363Z,97026.06
2022-09-21T11:26:14.006Z,97024.13
2022-09-21T11:28:48.930Z,97020.53
2022-09-21T11:31:55.667Z,97016.63
2022-09-21T11:34:41.056Z,97020.28
2022-09-21T11:37:21.015Z,97016.78
2022-09-21T11:40:17.598Z,97012.22
2022-09-21T11:42:58.105Z,97005.78
2022-09-21T11:45:41.809Z,97002.16
2022-09-21T11:48:23.304Z,97000.56
2022-09-21T11:51:02.513Z,96998.16
2022-09-21T11:53:43.859Z,96997.28
2022-09-21T11:56:27.034Z,96986.66
2022-09-21T11:59:07.042Z,96981.97
2022-09-21T12:01:49.440Z,96981.06
2022-09-21T12:04:42.617Z,96977.44
2022-09-21T12:07:30.329Z,96983.47
2022-09-21T12:10:36.669Z,96980.91
2022-09-21T12:13:13.274Z,96977.03
2022-09-21T12:15:50.058Z,96972.13
2022-09-21T12:18:27.400Z,96974.03
2022-09-21T12:21:02.747Z,96969.06
2022-09-21T12:23:41.643Z,96974.47
2022-09-21T12:26:13.199Z,96969.75
2022-09-21T12:28:43.897Z,96965.19
2022-09-21T12:31:19.848Z,96959.66
2022-09-21T12:33:55.250Z,96967.06
2022-09-21T12:36:30.728Z,96960.50
2022-09-21T12:39:06.592Z,96954.31
2022-09-21T12:41:40.984Z,96958.66
2022-09-21T12:44:18.669Z,96953.09
2022-09-21T12:46:53.621Z,96948.97
2022-09-21T12:49:30.416Z,96951.03
2022-09-21T12:52:07.105Z,96941.97
2022-09-21T12:54:45.463Z,96954.97
2022-09-21T12:57:49.318Z,96951.44
2022-09-21T13:00:20.627Z,96948.53
2022-09-21T13:02:54.945Z,96955.13
2022-09-21T13:05:39.982Z,96948.97
2022-09-21T13:08:13.476Z,96943.81
2022-09-21T13:10:54.660Z,96950.63
2022-09-21T13:13:31.724Z,96944.84
2022-09-21T13:16:01.976Z,96942.38
2022-09-21T13:18:36.238Z,96942.19
2022-09-21T13:21:19.395Z,96937.84
2022-09-21T13:23:54.755Z,96942.78
2022-09-21T13:26:34.669Z,96944.00
2022-09-21T13:29:25.822Z,96941.13
2022-09-21T13:31:57.652Z,96939.88
2022-09-21T13:34:32.303Z,96934.31
2022-09-21T13:37:35.270Z,96930.63
2022-09-21T13:40:36.050Z,96928.75
2022-09-21T13:43:23.620Z,96928.97
2022-09-21T13:45:59.181Z,96924.84
2022-09-21T13:48:30.870Z,96924.22
2022-09-21T13:51:10.178Z,96916.38
2022-09-21T13:53:42.282Z,96919.31
2022-09-21T13:56:20.560Z,96925.03
2022-09-21T13:58:53.138Z,96927.09
2022-09-21T14:01:45.894Z,96917.84
2022-09-21T14:04:23.742Z,96925.06
2022-09-21T14:06:54.236Z,96920.50
2022-09-21T14:09:28.437Z,96927.97
2022-09-21T14:12:00.206Z,96918.44
2022-09-21T14:14:33.013Z,96920.50
2022-09-21T14:17:02.531Z,96918.66
2022-09-21T14:20:04.591Z,96918.47
2022-09-21T14:22:41.422Z,96907.72
2022-09-21T14:25:54.499Z,96914.13
2022-09-21T14:28:35.525Z,96914.75
2022-09-21T14:31:14.182Z,96907.56
2022-09-21T14:33:48.148Z,96909.59
2022-09-21T14:36:20.763Z,96922.78
2022-09-21T14:38:54.969Z,96910.22
2022-09-21T14:41:27.165Z,96908.97
2022-09-21T14:43:56.824Z,96911.66
2022-09-21T14:46:51.452Z,96909.00
2022-09-21T14:49:34.878Z,96906.09
2022-09-21T14:52:19.040Z,96904.84
2022-09-21T14:55:03.205Z,96908.56
2022-09-21T14:57:51.339Z,96909.38
2022-09-21T15:00:23.319Z,96905.03
2022-09-21T15:03:10.041Z,96904.63
2022-09-21T15:05:41.528Z,96899.06
2022-09-21T15:08:59.745Z,96892.63
2022-09-21T15:11:31.688Z,96896.53
2022-09-21T15:14:19.991Z,96898.97
2022-09-21T15:16:51.009Z,96894.06
2022-09-21T15:19:25.006Z,96887.06
2022-09-21T15:21:54.926Z,96889.13
2022-09-21T15:24:27.851Z,96891.94
2022-09-21T15:27:04.104Z,96887.38
2022-09-21T15:29:34.882Z,96878.28
2022-09-21T15:32:03.980Z,96883.44
2022-09-21T15:34:35.328Z,96885.06
2022-09-21T15:37:08.632Z,96883.59
2022-09-21T15:39:37.164Z,96879.47
2022-09-21T15:42:22.749Z,96879.28
2022-09-21T15:45:11.188Z,96880.09
2022-09-21T15:47:42.182Z,96879.25
2022-09-21T15:50:14.627Z,96887.88
2022-09-21T15:52:49.304Z,96883.06
2022-09-21T15:55:21.543Z,96885.31
2022-09-21T15:57:51.761Z,96883.03
2022-09-21T16:00:26.862Z,96883.81
2022-09-21T16:03:05.997Z,96883.16
2022-09-21T16:05:44.089Z,96895.47
2022-09-21T16:08:28.624Z,96893.78
2022-09-21T16:11:27.014Z,96895.94
2022-09-21T16:14:23.553Z,96897.88
2022-09-21T16:17:21.660Z,96905.56
2022-09-21T16:20:10.483Z,96912.91
2022-09-21T16:22:41.111Z,96908.16
2022-09-21T16:25:24.747Z,96910.38
2022-09-21T16:27:55.976Z,96916.91
2022-09-21T16:30:48.766Z,96915.19
2022-09-21T16:33:41.064Z,96914.13
2022-09-21T16:36:45.581Z,96916.28
2022-09-21T16:39:17.199Z,96913.75
2022-09-21T16:41:49.383Z,96918.63
2022-09-21T16:44:23.008Z,96915.91
2022-09-21T16:46:57.716Z,96918.94
2022-09-21T16:49:31.237Z,96920.50
2022-09-21T16:52:00.368Z,96920.91
2022-09-21T16:54:29.189Z,96931.88
2022-09-21T16:56:59.803Z,96922.94
2022-09-21T16:59:28.906Z,96917.31
2022-09-21T17:01:59.091Z,96922.41
2022-09-21T17:04:31.946Z,96919.63
2022-09-21T17:07:00.815Z,96922.41
2022-09-21T17:09:35.031Z,96928.31
2022-09-21T17:12:06.212Z,96921.88
2022-09-21T17:14:42.967Z,96920.75
2022-09-21T17:17:17.595Z,96924.34
2022-09-21T17:19:50.037Z,96926.25
2022-09-21T17:22:19.318Z,96929.19
2022-09-21T17:24:51.813Z,96926.63
2022-09-21T17:27:22.687Z,96929.84
2022-09-21T17:29:53.740Z,96928.53
2022-09-21T17:32:24.250Z,96929.06
2022-09-21T17:34:58.686Z,96932.47
2022-09-21T17:37:27.199Z,96933.19
2022-09-21T17:39:55.634Z,96930.41
2022-09-21T17:42:25.790Z,96939.13
2022-09-21T17:45:12.453Z,96940.53
2022-09-21T17:47:41.994Z,96946.91
2022-09-21T17:50:22.950Z,96945.78
2022-09-21T17:53:17.898Z,96941.19
2022-09-21T17:55:54.420Z,96943.69
2022-09-21T17:58:44.544Z,96940.94
2022-09-21T18:01:28.337Z,96947.13
2022-09-21T18:03:57.542Z,96947.47
2022-09-21T18:06:27.878Z,96946.00
2022-09-21T18:08:57.419Z,96950.84
2022-09-21T18:11:51.094Z,96951.19
2022-09-21T18:14:33.035Z,96948.88
2022-09-21T18:17:19.990Z,96948.28
2022-09-21T18:20:03.719Z,96954.13
2022-09-21T18:22:43.009Z,96950.53
2022-09-21T18:25:16.379Z,96955.94
2022-09-21T18:27:48.591Z,96961.59
2022-09-21T18:30:18.614Z,96959.44
2022-09-21T18:32:58.993Z,96954.31
2022-09-21T18:35:49.845Z,96961.63
2022-09-21T18:38:28.403Z,96959.44
2022-09-21T18:41:13.332Z,96957.44
2022-09-21T18:44:05.171Z,96964.41
2022-09-21T18:46:43.443Z,96969.25
2022-09-21T18:49:23.800Z,96964.59
2022-09-21T18:51:58.719Z,96965.63
2022-09-21T18:54:29.711Z,96966.97
2022-09-21T18:56:59.210Z,96976.06
2022-09-21T18:59:31.707Z,96978.72
2022-09-21T19:02:01.123Z,96977.09
2022-09-21T19:04:30.140Z,96975.56
2022-09-21T19:07:04.366Z,96980.41
2022-09-21T19:09:45.471Z,96977.41
2022-09-21T19:12:23.900Z,96970.94
2022-09-21T19:15:12.321Z,96976.41
2022-09-21T19:17:53.521Z,96968.59
2022-09-21T19:20:36.191Z,96969.09
2022-09-21T19:23:13.317Z,96964.78
2022-09-21T19:25:49.474Z,96965.28
2022-09-21T19:28:46.800Z,96975.22
2022-09-21T19:31:19.479Z,96966.25
2022-09-21T19:33:50.724Z,96971.41
2022-09-21T19:36:20.475Z,96977.38
2022-09-21T19:38:49.311Z,96970.91
2022-09-21T19:41:38.156Z,96973.25
2022-09-21T19:44:32.554Z,96966.72
2022-09-21T19:47:08.900Z,96975.06
2022-09-21T19:49:46.699Z,96972.41
2022-09-21T19:52:17.948Z,96974.38
2022-09-21T19:55:04.668Z,96973.19
2022-09-21T19:57:52.824Z,96979.50
2022-09-21T20:00:22.777Z,96974.19
2022-09-21T20:03:02.537Z,96968.69
2022-09-21T20:05:40.232Z,96966.00
2022-09-21T20:08:18.197Z,96971.31
2022-09-21T20:11:01.830Z,96970.94
2022-09-21T20:13:44.968Z,96970.06
2022-09-21T20:16:28.652Z,96978.56
2022-09-21T20:19:03.783Z,96965.38
2022-09-21T20:21:39.435Z,96978.00
2022-09-21T20:24:19.219Z,96970.25
2022-09-21T20:26:50.766Z,96968.69
2022-09-21T20:29:21.857Z,96969.56
2022-09-21T20:31:52.273Z,96975.97
2022-09-21T20:34:21.495Z,96985.94
2022-09-21T20:36:49.924Z,96985.16
2022-09-21T20:39:18.239Z,96986.22
2022-09-21T20:41:46.568Z,96989.34
2022-09-21T20:44:15.436Z,96989.63
2022-09-21T20:46:45.123Z,96986.22
2022-09-21T20:49:15.307Z,96984.94
2022-09-21T20:51:43.665Z,96990.91
2022-09-21T20:54:12.212Z,96976.38
2022-09-21T20:56:40.873Z,96981.91
2022-09-21T20:59:09.379Z,96986.66
2022-09-21T21:01:37.786Z,96989.59
2022-09-21T21:04:07.636Z,96987.00
2022-09-21T21:06:37.692Z,96985.94
2022-09-21T21:09:06.102Z,96987.53
2022-09-21T21:11:34.557Z,96985.41
2022-09-21T21:14:03.567Z,96984.63
2022-09-21T21:16:32.189Z,96983.69
2022-09-21T21:19:00.851Z,96977.41
2022-09-21T21:21:30.633Z,96983.63
2022-09-21T21:24:16.518Z,96981.31
2022-09-21T21:27:01.160Z,96975.34
2022-09-21T21:29:30.712Z,96979.84
2022-09-21T21:32:00.025Z,96987.88
2022-09-21T21:34:28.894Z,96984.72
2022-09-21T21:36:58.982Z,96974.66
2022-09-21T21:39:27.383Z,96987.41
2022-09-21T21:41:55.707Z,96979.97
2022-09-21T21:44:24.138Z,96974.94
2022-09-21T21:46:53.342Z,96977.81
2022-09-21T21:49:22.156Z,96978.28
2022-09-21T21:51:51.028Z,96974.84
2022-09-21T21:54:23.311Z,96979.44
2022-09-21T21:56:53.622Z,96977.94
2022-09-21T21:59:22.382Z,96970.56
2022-09-21T22:01:51.018Z,96984.69
2022-09-21T22:04:21.645Z,96976.19
2022-09-21T22:06:52.813Z,96974.81
2022-09-21T22:09:23.174Z,96978.59
2022-09-21T22:11:51.515Z,96976.22
2022-09-21T22:14:19.865Z,96979.88
2022-09-21T22:16:48.220Z,96972.75
2022-09-21T22:19:16.604Z,96980.66
2022-09-21T22:21:51.728Z,96981.06
2022-09-21T22:24:23.701Z,96980.38
2022-09-21T22:26:52.041Z,96981.19
2022-09-21T22:29:20.329Z,96977.03
2022-09-21T22:31:50.247Z,96978.28
2022-09-21T22:34:18.961Z,96978.09
2022-09-21T22:36:47.304Z,96977.84
2022-09-21T22:39:15.621Z,96969.25
2022-09-21T22:41:45.308Z,96971.91
2022-09-21T22:44:13.961Z,96967.28
2022-09-21T22:46:42.428Z,96971.72
2022-09-21T22:49:10.722Z,96979.06
2022-09-21T22:51:39.040Z,96982.31
2022-09-21T22:54:07.755Z,96975.78
2022-09-21T22:56:36.674Z,96964.81
2022-09-21T22:59:07.054Z,96967.00
2022-09-21T23:01:37.403Z,96970.34
2022-09-21T23:04:08.065Z,96968.13
2022-09-21T23:06:39.075Z,96966.59
2022-09-21T23:09:09.374Z,96971.88
2022-09-21T23:11:41.974Z,96965.38
2022-09-21T23:14:12.890Z,96960.97
2022-09-21T23:16:41.358Z,96961.78
2022-09-21T23:19:15.393Z,96961.38
2022-09-21T23:21:45.570Z,96959.31
2022-09-21T23:24:14.105Z,96959.31
2022-09-21T23:26:43.528Z,96956.28
2022-09-21T23:29:15.173Z,96961.53
2022-09-21T23:31:45.717Z,96964.22
2022-09-21T23:34:16.002Z,96953.13
2022-09-21T23:36:45.805Z,96951.88
2022-09-21T23:39:15.901Z,96949.81
2022-09-21T23:41:44.806Z,96956.75
2022-09-21T23:44:14.973Z,96948.94
2022-09-21T23:46:43.460Z,96954.78
2022-09-21T23:49:11.981Z,96952.13
2022-09-21T23:51:40.806Z,96952.69
2022-09-21T23:54:09.462Z,96945.06
2022-09-21T23:56:37.923Z,96942.41
2022-09-21T23:59:06.495Z,96946.72
